Ida Theresa — V7RQ9 — position and weather

sailwx.info

Track history (hours):
 
Tides and Currents Weather Stations Pressure Air Temp Water Temp Dewpoint Dewpoint Depression Visibility Wind Speed Wind Dir Waves Ship Positions

Ida Theresa

Last reported at 2015-May-05 15:06 UTC. Time now 2015-May-06 04:25 UTC.
Position N 54°38' E 020°01'.

Length 121 m; draft 5.7 m.

Type: Ship. MMSI: 538090386.

Date/timePositionNaut miles runAvg speedWind from/ knotsBaromVisibWave heightAir tempDewpointWater temp
2015-May-05 15:06N 54°38' E 020°01'15 5.9
2015-May-05 12:32N 54°45' E 019°37'1212.2
2015-May-05 11:31N 54°50' E 019°18'1212.2
2015-May-05 10:33N 54°53' E 018°58'1212.3
2015-May-05 09:34N 54°57' E 018°38'1211.7
2015-May-05 08:33N 54°60' E 018°18'1212.0
2015-May-05 07:32N 54°57' E 017°57'1212.0
2015-May-05 06:34N 54°54' E 017°37'1212.2
2015-May-05 05:32N 54°52' E 017°16'1212.2
2015-May-05 04:33N 54°49' E 016°56'4012.4
2015-May-05 01:19N 54°43' E 015°47'1412.4
2015-May-05 00:11N 54°40' E 015°23'1012.4
2015-May-04 23:23N 54°39' E 015°06'2512.3
2015-May-04 21:19N 54°35' E 014°23'912.1
2015-May-04 20:33N 54°39' E 014°09'1212.2
2015-May-04 19:33N 54°43' E 013°49'1212.2
2015-May-04 18:33N 54°45' E 013°28'1212.3
2015-May-04 17:33N 54°45' E 013°06'1212.0
2015-May-04 16:33N 54°45' E 012°46'1212.1
2015-May-04 15:33N 54°39' E 012°28'1211.6
2015-May-04 14:33N 54°29' E 012°16'1010.2
2015-May-04 13:33N 54°24' E 012°01'1211.7
2015-May-04 12:33N 54°26' E 011°41'1212.0
2015-May-04 11:33N 54°32' E 011°23'1111.3
2015-May-04 10:33N 54°35' E 011°04'1712.4
2015-May-04 09:13N 54°33' E 010°35'812.7
2015-May-04 08:34N 54°30' E 010°22'1010.2
2015-May-04 07:33N 54°22' E 010°11'2 1.6
2015-May-04 06:33N 54°22' E 010°08'6 6.4
2015-May-04 05:33N 54°21' E 009°58'8 7.6
2015-May-04 04:33N 54°20' E 009°45'7 7.3
2015-May-04 03:33N 54°15' E 009°37'12 7.7
2015-May-04 02:04N 54°08' E 009°20'4 8.0
2015-May-04 01:33N 54°04' E 009°19'8 8.1
2015-May-04 00:33N 53°57' E 009°14'1 0.6
2015-May-03 23:33N 53°56' E 009°13'4 3.8
2015-May-03 22:33N 53°54' E 009°09'1 0.5
2015-May-03 21:33N 53°53' E 009°08'9 8.5
2015-May-03 20:33N 53°51' E 008°54'1111.3
2015-May-03 19:33N 53°57' E 008°38'1212.4
2015-May-03 18:33N 53°60' E 008°18'1211.6
2015-May-03 17:34N 54°02' E 007°58'1111.4
2015-May-03 16:33N 54°07' E 007°41'1110.7
2015-May-03 15:33N 54°09' E 007°23'1110.9
2015-May-03 14:33N 54°09' E 007°04'1110.6
2015-May-03 13:33N 54°08' E 006°46'1410.7
2015-May-03 12:16N 54°09' E 006°23'810.7
2015-May-03 11:33N 54°08' E 006°10'1111.0
2015-May-03 10:33N 54°06' E 005°52'1111.3
2015-May-03 09:33N 54°04' E 005°32'1311.8
2015-May-03 08:28N 54°03' E 005°11'1111.9
2015-May-03 07:32N 54°01' E 004°52'1211.2
2015-May-03 06:29N 53°55' E 004°35'5911.6
2015-May-03 01:24N 53°10' E 003°30'1112.3
2015-May-03 00:32N 52°60' E 003°24'1211.9
2015-May-02 23:33N 52°49' E 003°16'1111.3
2015-May-02 22:33N 52°39' E 003°07'37 9.1
2015-May-02 18:33N 52°07' E 003°35'1212.4
2015-May-02 17:34N 52°02' E 003°54'1313.0
2015-May-02 16:33N 51°56' E 004°13'5 5.0
2015-May-02 15:34N 51°53' E 004°19'0 0.0
2015-May-02 14:30N 51°53' E 004°19'0 0.0
2015-May-02 13:33N 51°53' E 004°19'0 0.0
2015-May-02 12:33N 51°53' E 004°19'0 0.0
2015-May-02 11:33N 51°53' E 004°19'0 0.0
2015-May-02 10:27N 51°53' E 004°19'0 0.0
2015-May-02 09:33N 51°53' E 004°19'0 0.0
2015-May-02 08:33N 51°53' E 004°19'0 0.0
2015-May-02 07:30N 51°53' E 004°19'0 0.0
2015-May-02 06:33N 51°53' E 004°19'0 0.0
2015-May-02 05:33N 51°53' E 004°19'0 0.0
2015-May-02 04:33N 51°53' E 004°19'0 0.0
2015-May-02 03:33N 51°53' E 004°19'0 0.0
2015-May-02 02:30N 51°53' E 004°19'0 0.0
2015-May-02 01:30N 51°53' E 004°19'0 0.0
2015-May-02 00:33N 51°53' E 004°19'0 0.0
2015-May-01 23:33N 51°53' E 004°19'0 0.0
2015-May-01 22:33N 51°53' E 004°19'1 1.2
2015-May-01 21:33N 51°54' E 004°18'1010.2
2015-May-01 20:33N 51°59' E 004°04'10 9.6
2015-May-01 19:34N 51°59' E 003°48'3 3.0
2015-May-01 18:29N 51°56' E 003°45'0 0.0
2015-May-01 17:26N 51°56' E 003°45'0 0.0
2015-May-01 16:31N 51°56' E 003°45'0 0.0
2015-May-01 15:29N 51°56' E 003°45'0 0.1
2015-May-01 14:31N 51°56' E 003°45'0 0.0
2015-May-01 13:23N 51°56' E 003°45'0 0.0
2015-May-01 12:26N 51°56' E 003°45'0 0.1
2015-May-01 11:31N 51°56' E 003°45'0 0.1
2015-May-01 09:33N 51°56' E 003°45'9 8.5
2015-May-01 08:29N 51°56' E 003°30'1210.0
2015-May-01 07:16N 51°47' E 003°16'9 9.2
2015-May-01 06:16N 51°38' E 003°20'811.0
2015-May-01 05:33N 51°31' E 003°26'10 9.6
2015-May-01 04:33N 51°26' E 003°39'1211.5
2015-May-01 03:34N 51°23' E 003°56'9 9.1
2015-May-01 02:34N 51°24' E 004°11'9 9.1
2015-May-01 01:33N 51°17' E 004°20'1 0.8
2015-May-01 00:33N 51°16' E 004°21'0 0.0
2015-Apr-30 23:33N 51°16' E 004°21'0 0.0
2015-Apr-30 22:33N 51°16' E 004°21'0 0.0
2015-Apr-30 21:33N 51°16' E 004°21'0 0.0
2015-Apr-30 20:33N 51°16' E 004°21'0 0.0
2015-Apr-30 19:33N 51°16' E 004°21'0 0.0
2015-Apr-30 18:33N 51°16' E 004°21'0 0.0
2015-Apr-30 17:33N 51°16' E 004°21'0 0.0
2015-Apr-30 16:33N 51°16' E 004°21'0 0.0
2015-Apr-30 15:33N 51°16' E 004°21'0 0.0
2015-Apr-30 14:33N 51°16' E 004°21'0 0.0
2015-Apr-30 13:33N 51°16' E 004°21'0 0.0
2015-Apr-30 12:33N 51°16' E 004°21'0 0.0
2015-Apr-30 11:33N 51°16' E 004°21'0 0.0
2015-Apr-30 10:33N 51°16' E 004°21'0 0.0
2015-Apr-30 09:33N 51°16' E 004°21'0 0.4
2015-Apr-30 08:33N 51°17' E 004°21'4 3.8
2015-Apr-30 07:33N 51°20' E 004°18'1 0.8
2015-Apr-30 06:34N 51°21' E 004°17'3 3.3
2015-Apr-30 05:33N 51°23' E 004°13'7 7.2
2015-Apr-30 04:33N 51°25' E 004°02'8 8.0
2015-Apr-30 03:34N 51°21' E 003°51'9 9.1
2015-Apr-30 02:34N 51°26' E 003°39'8 8.1
2015-Apr-30 01:33N 51°25' E 003°27'1212.3
2015-Apr-30 00:33N 51°24' E 003°07'1313.0
2015-Apr-29 23:33N 51°22' E 002°47'9 8.6
2015-Apr-29 22:34N 51°20' E 002°33'0 0.1
2015-Apr-29 21:21N 51°20' E 002°33'0 0.0
2015-Apr-29 20:33N 51°20' E 002°33'0 0.0
2015-Apr-29 19:33N 51°20' E 002°33'0 0.1
2015-Apr-29 18:33N 51°20' E 002°33'0 0.1
2015-Apr-29 17:18N 51°20' E 002°33'0 0.1
2015-Apr-29 16:33N 51°20' E 002°33'0 0.0
2015-Apr-29 15:33N 51°20' E 002°33'0 0.0
2015-Apr-29 14:33N 51°20' E 002°33'0 0.0
2015-Apr-29 13:33N 51°20' E 002°33'0 0.0
2015-Apr-29 12:33N 51°20' E 002°33'0 0.0
2015-Apr-29 11:33N 51°21' E 002°33'0 0.0
2015-Apr-29 10:33N 51°20' E 002°33'0 0.0
2015-Apr-29 09:33N 51°20' E 002°33'0 0.0
2015-Apr-29 08:21N 51°21' E 002°33'0 0.0
2015-Apr-29 07:33N 51°21' E 002°33'0 0.0
2015-Apr-29 06:33N 51°21' E 002°33'0 0.2
2015-Apr-29 05:33N 51°20' E 002°33'0 0.0
2015-Apr-29 04:33N 51°20' E 002°33'0 0.1
2015-Apr-29 03:33N 51°20' E 002°33'0 0.1
2015-Apr-29 02:33N 51°21' E 002°33'0 0.0
2015-Apr-29 01:24N 51°20' E 002°33'0 0.0
2015-Apr-29 00:27N 51°20' E 002°33'0 0.0
2015-Apr-28 23:30N 51°20' E 002°33'0 0.0
2015-Apr-28 22:33N 51°20' E 002°33'0 0.0
2015-Apr-28 21:33N 51°20' E 002°33'0 0.0
2015-Apr-28 20:33N 51°20' E 002°33'0 0.0
2015-Apr-28 19:33N 51°20' E 002°33'0 0.0
2015-Apr-28 18:33N 51°20' E 002°33'0 0.1
2015-Apr-28 17:33N 51°20' E 002°33'0 0.1
2015-Apr-28 16:09N 51°20' E 002°33'0 0.0
2015-Apr-28 13:18N 51°20' E 002°33'0 0.0
2015-Apr-28 12:33N 51°20' E 002°33'0 0.0
2015-Apr-28 11:33N 51°20' E 002°33'0 0.0
2015-Apr-28 10:30N 51°20' E 002°33'0 0.0
2015-Apr-28 09:33N 51°20' E 002°33'0 0.0
2015-Apr-28 08:33N 51°20' E 002°33'0 0.0
2015-Apr-28 07:33N 51°20' E 002°33'0 0.0
2015-Apr-28 06:33N 51°20' E 002°33'0 0.0
2015-Apr-28 05:33N 51°20' E 002°33'0 0.0
2015-Apr-28 04:30N 51°20' E 002°33'0 0.0
2015-Apr-28 03:15N 51°20' E 002°33'0 0.1
2015-Apr-28 02:33N 51°20' E 002°33'0 0.2
2015-Apr-28 01:33N 51°20' E 002°33'0 0.0
2015-Apr-28 00:33N 51°20' E 002°33'0 0.0
2015-Apr-27 23:33N 51°20' E 002°33'0 0.0
2015-Apr-27 22:33N 51°20' E 002°33'0 0.0
2015-Apr-27 21:27N 51°20' E 002°33'0 0.0
2015-Apr-27 20:27N 51°20' E 002°33'0 0.0
2015-Apr-27 19:33N 51°20' E 002°33'0 0.1
2015-Apr-27 18:27N 51°20' E 002°33'0 0.1
2015-Apr-27 17:33N 51°20' E 002°33'0 0.0
2015-Apr-27 16:33N 51°20' E 002°33'0 0.0
2015-Apr-27 15:33N 51°20' E 002°33'0 0.0
2015-Apr-27 14:30N 51°20' E 002°33'0 0.0
2015-Apr-27 13:27N 51°20' E 002°33'0 0.0
2015-Apr-27 12:33N 51°20' E 002°33'0 0.0
2015-Apr-27 11:33N 51°20' E 002°33'0 0.0
2015-Apr-27 10:33N 51°20' E 002°33'0 0.0
2015-Apr-27 09:33N 51°20' E 002°33'0 0.0
2015-Apr-27 05:33N 51°20' E 002°33'0 0.0
2015-Apr-27 04:30N 51°20' E 002°33'0 0.0
2015-Apr-27 03:33N 51°20' E 002°33'0 0.0
2015-Apr-27 02:30N 51°20' E 002°33'0 0.0
2015-Apr-27 01:33N 51°20' E 002°33'0 0.0
2015-Apr-27 00:33N 51°20' E 002°33'0 0.0
2015-Apr-26 23:33N 51°20' E 002°33'0 0.0
2015-Apr-26 22:30N 51°20' E 002°33'0 0.0
2015-Apr-26 21:33N 51°20' E 002°33'0 0.1
2015-Apr-26 20:33N 51°20' E 002°33'0 0.0
2015-Apr-26 19:24N 51°20' E 002°33'0 0.0
2015-Apr-26 18:33N 51°20' E 002°33'0 0.1
2015-Apr-26 17:21N 51°20' E 002°33'0 0.0
2015-Apr-26 16:24N 51°20' E 002°33'0 0.0
2015-Apr-26 15:30N 51°20' E 002°33'0 0.0
2015-Apr-26 14:33N 51°20' E 002°33'0 0.0
2015-Apr-26 13:33N 51°20' E 002°33'0 0.0
2015-Apr-26 12:30N 51°20' E 002°33'1 1.2
2015-Apr-26 11:33N 51°21' E 002°32'10 9.6
2015-Apr-26 10:33N 51°18' E 002°18'1111.4
2015-Apr-26 09:33N 51°13' E 002°02'1212.0
2015-Apr-26 08:34N 51°06' E 001°46'1313.0
2015-Apr-26 07:34N 50°57' E 001°31'4012.2
2015-Apr-26 04:16N 50°28' E 000°47'  
Track history (hours):
 
Tides and Currents Weather Stations Pressure Air Temp Water Temp Dewpoint Dewpoint Depression Visibility Wind Speed Wind Dir Waves Ship Positions

Ida Theresa

Last reported at 2015-May-05 15:06 UTC. Time now 2015-May-06 04:25 UTC.
Position N 54°38' E 020°01'.

Length 121 m; draft 5.7 m.

Type: Ship. MMSI: 538090386.

Date/timePositionNaut miles runAvg speedWind from/ knotsBaromVisibWave heightAir tempDewpointWater temp
2015-May-05 15:06N 54°38' E 020°01'15 5.9
2015-May-05 12:32N 54°45' E 019°37'1212.2
2015-May-05 11:31N 54°50' E 019°18'1212.2
2015-May-05 10:33N 54°53' E 018°58'1212.3
2015-May-05 09:34N 54°57' E 018°38'1211.7
2015-May-05 08:33N 54°60' E 018°18'1212.0
2015-May-05 07:32N 54°57' E 017°57'1212.0
2015-May-05 06:34N 54°54' E 017°37'1212.2
2015-May-05 05:32N 54°52' E 017°16'1212.2
2015-May-05 04:33N 54°49' E 016°56'4012.4
2015-May-05 01:19N 54°43' E 015°47'1412.4
2015-May-05 00:11N 54°40' E 015°23'1012.4
2015-May-04 23:23N 54°39' E 015°06'2512.3
2015-May-04 21:19N 54°35' E 014°23'912.1
2015-May-04 20:33N 54°39' E 014°09'1212.2
2015-May-04 19:33N 54°43' E 013°49'1212.2
2015-May-04 18:33N 54°45' E 013°28'1212.3
2015-May-04 17:33N 54°45' E 013°06'1212.0
2015-May-04 16:33N 54°45' E 012°46'1212.1
2015-May-04 15:33N 54°39' E 012°28'1211.6
2015-May-04 14:33N 54°29' E 012°16'1010.2
2015-May-04 13:33N 54°24' E 012°01'1211.7
2015-May-04 12:33N 54°26' E 011°41'1212.0
2015-May-04 11:33N 54°32' E 011°23'1111.3
2015-May-04 10:33N 54°35' E 011°04'1712.4
2015-May-04 09:13N 54°33' E 010°35'812.7
2015-May-04 08:34N 54°30' E 010°22'1010.2
2015-May-04 07:33N 54°22' E 010°11'2 1.6
2015-May-04 06:33N 54°22' E 010°08'6 6.4
2015-May-04 05:33N 54°21' E 009°58'8 7.6
2015-May-04 04:33N 54°20' E 009°45'7 7.3
2015-May-04 03:33N 54°15' E 009°37'12 7.7
2015-May-04 02:04N 54°08' E 009°20'4 8.0
2015-May-04 01:33N 54°04' E 009°19'8 8.1
2015-May-04 00:33N 53°57' E 009°14'1 0.6
2015-May-03 23:33N 53°56' E 009°13'4 3.8
2015-May-03 22:33N 53°54' E 009°09'1 0.5
2015-May-03 21:33N 53°53' E 009°08'9 8.5
2015-May-03 20:33N 53°51' E 008°54'1111.3
2015-May-03 19:33N 53°57' E 008°38'1212.4
2015-May-03 18:33N 53°60' E 008°18'1211.6
2015-May-03 17:34N 54°02' E 007°58'1111.4
2015-May-03 16:33N 54°07' E 007°41'1110.7
2015-May-03 15:33N 54°09' E 007°23'1110.9
2015-May-03 14:33N 54°09' E 007°04'1110.6
2015-May-03 13:33N 54°08' E 006°46'1410.7
2015-May-03 12:16N 54°09' E 006°23'810.7
2015-May-03 11:33N 54°08' E 006°10'1111.0
2015-May-03 10:33N 54°06' E 005°52'1111.3
2015-May-03 09:33N 54°04' E 005°32'1311.8
2015-May-03 08:28N 54°03' E 005°11'1111.9
2015-May-03 07:32N 54°01' E 004°52'1211.2
2015-May-03 06:29N 53°55' E 004°35'5911.6
2015-May-03 01:24N 53°10' E 003°30'1112.3
2015-May-03 00:32N 52°60' E 003°24'1211.9
2015-May-02 23:33N 52°49' E 003°16'1111.3
2015-May-02 22:33N 52°39' E 003°07'37 9.1
2015-May-02 18:33N 52°07' E 003°35'1212.4
2015-May-02 17:34N 52°02' E 003°54'1313.0
2015-May-02 16:33N 51°56' E 004°13'5 5.0
2015-May-02 15:34N 51°53' E 004°19'0 0.0
2015-May-02 14:30N 51°53' E 004°19'0 0.0
2015-May-02 13:33N 51°53' E 004°19'0 0.0
2015-May-02 12:33N 51°53' E 004°19'0 0.0
2015-May-02 11:33N 51°53' E 004°19'0 0.0
2015-May-02 10:27N 51°53' E 004°19'0 0.0
2015-May-02 09:33N 51°53' E 004°19'0 0.0
2015-May-02 08:33N 51°53' E 004°19'0 0.0
2015-May-02 07:30N 51°53' E 004°19'0 0.0
2015-May-02 06:33N 51°53' E 004°19'0 0.0
2015-May-02 05:33N 51°53' E 004°19'0 0.0
2015-May-02 04:33N 51°53' E 004°19'0 0.0
2015-May-02 03:33N 51°53' E 004°19'0 0.0
2015-May-02 02:30N 51°53' E 004°19'0 0.0
2015-May-02 01:30N 51°53' E 004°19'0 0.0
2015-May-02 00:33N 51°53' E 004°19'0 0.0
2015-May-01 23:33N 51°53' E 004°19'0 0.0
2015-May-01 22:33N 51°53' E 004°19'1 1.2
2015-May-01 21:33N 51°54' E 004°18'1010.2
2015-May-01 20:33N 51°59' E 004°04'10 9.6
2015-May-01 19:34N 51°59' E 003°48'3 3.0
2015-May-01 18:29N 51°56' E 003°45'0 0.0
2015-May-01 17:26N 51°56' E 003°45'0 0.0
2015-May-01 16:31N 51°56' E 003°45'0 0.0
2015-May-01 15:29N 51°56' E 003°45'0 0.1
2015-May-01 14:31N 51°56' E 003°45'0 0.0
2015-May-01 13:23N 51°56' E 003°45'0 0.0
2015-May-01 12:26N 51°56' E 003°45'0 0.1
2015-May-01 11:31N 51°56' E 003°45'0 0.1
2015-May-01 09:33N 51°56' E 003°45'9 8.5
2015-May-01 08:29N 51°56' E 003°30'1210.0
2015-May-01 07:16N 51°47' E 003°16'9 9.2
2015-May-01 06:16N 51°38' E 003°20'811.0
2015-May-01 05:33N 51°31' E 003°26'10 9.6
2015-May-01 04:33N 51°26' E 003°39'1211.5
2015-May-01 03:34N 51°23' E 003°56'9 9.1
2015-May-01 02:34N 51°24' E 004°11'9 9.1
2015-May-01 01:33N 51°17' E 004°20'1 0.8
2015-May-01 00:33N 51°16' E 004°21'0 0.0
2015-Apr-30 23:33N 51°16' E 004°21'0 0.0
2015-Apr-30 22:33N 51°16' E 004°21'0 0.0
2015-Apr-30 21:33N 51°16' E 004°21'0 0.0
2015-Apr-30 20:33N 51°16' E 004°21'0 0.0
2015-Apr-30 19:33N 51°16' E 004°21'0 0.0
2015-Apr-30 18:33N 51°16' E 004°21'0 0.0
2015-Apr-30 17:33N 51°16' E 004°21'0 0.0
2015-Apr-30 16:33N 51°16' E 004°21'0 0.0
2015-Apr-30 15:33N 51°16' E 004°21'0 0.0
2015-Apr-30 14:33N 51°16' E 004°21'0 0.0
2015-Apr-30 13:33N 51°16' E 004°21'0 0.0
2015-Apr-30 12:33N 51°16' E 004°21'0 0.0
2015-Apr-30 11:33N 51°16' E 004°21'0 0.0
2015-Apr-30 10:33N 51°16' E 004°21'0 0.0
2015-Apr-30 09:33N 51°16' E 004°21'0 0.4
2015-Apr-30 08:33N 51°17' E 004°21'4 3.8
2015-Apr-30 07:33N 51°20' E 004°18'1 0.8
2015-Apr-30 06:34N 51°21' E 004°17'3 3.3
2015-Apr-30 05:33N 51°23' E 004°13'7 7.2
2015-Apr-30 04:33N 51°25' E 004°02'8 8.0
2015-Apr-30 03:34N 51°21' E 003°51'9 9.1
2015-Apr-30 02:34N 51°26' E 003°39'8 8.1
2015-Apr-30 01:33N 51°25' E 003°27'1212.3
2015-Apr-30 00:33N 51°24' E 003°07'1313.0
2015-Apr-29 23:33N 51°22' E 002°47'9 8.6
2015-Apr-29 22:34N 51°20' E 002°33'0 0.1
2015-Apr-29 21:21N 51°20' E 002°33'0 0.0
2015-Apr-29 20:33N 51°20' E 002°33'0 0.0
2015-Apr-29 19:33N 51°20' E 002°33'0 0.1
2015-Apr-29 18:33N 51°20' E 002°33'0 0.1
2015-Apr-29 17:18N 51°20' E 002°33'0 0.1
2015-Apr-29 16:33N 51°20' E 002°33'0 0.0
2015-Apr-29 15:33N 51°20' E 002°33'0 0.0
2015-Apr-29 14:33N 51°20' E 002°33'0 0.0
2015-Apr-29 13:33N 51°20' E 002°33'0 0.0
2015-Apr-29 12:33N 51°20' E 002°33'0 0.0
2015-Apr-29 11:33N 51°21' E 002°33'0 0.0
2015-Apr-29 10:33N 51°20' E 002°33'0 0.0
2015-Apr-29 09:33N 51°20' E 002°33'0 0.0
2015-Apr-29 08:21N 51°21' E 002°33'0 0.0
2015-Apr-29 07:33N 51°21' E 002°33'0 0.0
2015-Apr-29 06:33N 51°21' E 002°33'0 0.2
2015-Apr-29 05:33N 51°20' E 002°33'0 0.0
2015-Apr-29 04:33N 51°20' E 002°33'0 0.1
2015-Apr-29 03:33N 51°20' E 002°33'0 0.1
2015-Apr-29 02:33N 51°21' E 002°33'0 0.0
2015-Apr-29 01:24N 51°20' E 002°33'0 0.0
2015-Apr-29 00:27N 51°20' E 002°33'0 0.0
2015-Apr-28 23:30N 51°20' E 002°33'0 0.0
2015-Apr-28 22:33N 51°20' E 002°33'0 0.0
2015-Apr-28 21:33N 51°20' E 002°33'0 0.0
2015-Apr-28 20:33N 51°20' E 002°33'0 0.0
2015-Apr-28 19:33N 51°20' E 002°33'0 0.0
2015-Apr-28 18:33N 51°20' E 002°33'0 0.1
2015-Apr-28 17:33N 51°20' E 002°33'0 0.1
2015-Apr-28 16:09N 51°20' E 002°33'0 0.0
2015-Apr-28 13:18N 51°20' E 002°33'0 0.0
2015-Apr-28 12:33N 51°20' E 002°33'0 0.0
2015-Apr-28 11:33N 51°20' E 002°33'0 0.0
2015-Apr-28 10:30N 51°20' E 002°33'0 0.0
2015-Apr-28 09:33N 51°20' E 002°33'0 0.0
2015-Apr-28 08:33N 51°20' E 002°33'0 0.0
2015-Apr-28 07:33N 51°20' E 002°33'0 0.0
2015-Apr-28 06:33N 51°20' E 002°33'0 0.0
2015-Apr-28 05:33N 51°20' E 002°33'0 0.0
2015-Apr-28 04:30N 51°20' E 002°33'0 0.0
2015-Apr-28 03:15N 51°20' E 002°33'0 0.1
2015-Apr-28 02:33N 51°20' E 002°33'0 0.2
2015-Apr-28 01:33N 51°20' E 002°33'0 0.0
2015-Apr-28 00:33N 51°20' E 002°33'0 0.0
2015-Apr-27 23:33N 51°20' E 002°33'0 0.0
2015-Apr-27 22:33N 51°20' E 002°33'0 0.0
2015-Apr-27 21:27N 51°20' E 002°33'0 0.0
2015-Apr-27 20:27N 51°20' E 002°33'0 0.0
2015-Apr-27 19:33N 51°20' E 002°33'0 0.1
2015-Apr-27 18:27N 51°20' E 002°33'0 0.1
2015-Apr-27 17:33N 51°20' E 002°33'0 0.0
2015-Apr-27 16:33N 51°20' E 002°33'0 0.0
2015-Apr-27 15:33N 51°20' E 002°33'0 0.0
2015-Apr-27 14:30N 51°20' E 002°33'0 0.0
2015-Apr-27 13:27N 51°20' E 002°33'0 0.0
2015-Apr-27 12:33N 51°20' E 002°33'0 0.0
2015-Apr-27 11:33N 51°20' E 002°33'0 0.0
2015-Apr-27 10:33N 51°20' E 002°33'0 0.0
2015-Apr-27 09:33N 51°20' E 002°33'0 0.0
2015-Apr-27 05:33N 51°20' E 002°33'0 0.0
2015-Apr-27 04:30N 51°20' E 002°33'0 0.0
2015-Apr-27 03:33N 51°20' E 002°33'0 0.0
2015-Apr-27 02:30N 51°20' E 002°33'0 0.0
2015-Apr-27 01:33N 51°20' E 002°33'0 0.0
2015-Apr-27 00:33N 51°20' E 002°33'0 0.0
2015-Apr-26 23:33N 51°20' E 002°33'0 0.0
2015-Apr-26 22:30N 51°20' E 002°33'0 0.0
2015-Apr-26 21:33N 51°20' E 002°33'0 0.1
2015-Apr-26 20:33N 51°20' E 002°33'0 0.0
2015-Apr-26 19:24N 51°20' E 002°33'0 0.0
2015-Apr-26 18:33N 51°20' E 002°33'0 0.1
2015-Apr-26 17:21N 51°20' E 002°33'0 0.0
2015-Apr-26 16:24N 51°20' E 002°33'0 0.0
2015-Apr-26 15:30N 51°20' E 002°33'0 0.0
2015-Apr-26 14:33N 51°20' E 002°33'0 0.0
2015-Apr-26 13:33N 51°20' E 002°33'0 0.0
2015-Apr-26 12:30N 51°20' E 002°33'1 1.2
2015-Apr-26 11:33N 51°21' E 002°32'10 9.6
2015-Apr-26 10:33N 51°18' E 002°18'1111.4
2015-Apr-26 09:33N 51°13' E 002°02'1212.0
2015-Apr-26 08:34N 51°06' E 001°46'1313.0
2015-Apr-26 07:34N 50°57' E 001°31'4012.2
2015-Apr-26 04:16N 50°28' E 000°47'  

Dump ship's entire track history